Flight Track Log - Related Links

Times and Time Zones

All times are in EST time to prevent confusion due to time zone crossing. See the N340K flight status page for this flight to view local times or setup timezone preferences in your user account.

Time Position Orientation Groundspeed Altitude Reporting Facility
EST Latitude Longitude Course Direction KTS MPH feet Rate Location/Type
Fri 02:56:28 PM 45.9325 -119.9506 333° Northwest 123 142 4,600  Level Seattle Center
Fri 02:57:29 PM 45.9667 -119.9703 338° Northwest 135 155 5,500 934 Climbing Seattle Center
Fri 02:58:30 PM 46.0000 -119.9950 333° Northwest 135 155 6,500 885 Climbing Seattle Center
Fri 02:59:31 PM 46.0319 -120.0283 324° Northwest 143 165 7,300 836 Climbing Seattle Center
Fri 03:00:00 PM 46.0006 -119.9924 328° Northwest  Level Estimated
Fri 03:00:32 PM 46.0664 -120.0594 328° Northwest 147 169 8,200  Level Seattle Center
Fri 03:01:33 PM 46.0997 -120.0922 326° Northwest 145 167 9,000 787 Climbing Seattle Center
Fri 03:02:34 PM 46.1347 -120.1250 327° Northwest 150 173 9,800 885 Climbing Seattle Center
Fri 03:03:35 PM 46.1681 -120.1567 327° Northwest 147 169 10,800 984 Climbing Seattle Center
Fri 03:04:36 PM 46.2067 -120.1956 325° Northwest 142 163 11,800 836 Climbing Seattle Center
Fri 03:05:37 PM 46.2433 -120.2275 329° Northwest 152 175 12,500 639 Climbing Seattle Center
Fri 03:06:38 PM 46.2756 -120.2583 327° Northwest 145 167 13,100 541 Climbing Seattle Center
Fri 03:07:39 PM 46.3094 -120.2919 326° Northwest 145 167 13,600 492 Climbing Seattle Center
Fri 03:08:40 PM 46.3419 -120.3217 328° Northwest 142 163 14,100 246 Climbing Seattle Center
Fri 03:09:41 PM 46.3786 -120.3592 325° Northwest 161 185 14,100  Level Seattle Center
Fri 03:10:42 PM 46.4167 -120.3914 330° Northwest 158 182 14,100  Level Seattle Center
Fri 03:11:43 PM 46.4556 -120.4311 325° Northwest 170 196 14,100  Level Seattle Center
Fri 03:12:44 PM 46.4983 -120.4711 327° Northwest 180 207 14,100  Level Seattle Center
Fri 03:13:45 PM 46.5378 -120.5108 325° Northwest 174 200 14,100  Level Seattle Center
Fri 03:14:46 PM 46.5767 -120.5511 325° Northwest 172 198 14,100  Level Seattle Center
Fri 03:15:47 PM 46.6264 -120.5911 331° Northwest 172 198 14,100  Level Seattle Center
Fri 03:16:48 PM 46.6658 -120.6300 326° Northwest 171 197 14,100  Level Seattle Center
Fri 03:17:49 PM 46.7053 -120.6694 326° Northwest 171 197 14,100  Level Seattle Center
Fri 03:18:50 PM 46.7461 -120.7067 328° Northwest 173 199 14,100  Level Seattle Center
Fri 03:19:51 PM 46.7839 -120.7447 325° Northwest 168 193 14,100  Level Seattle Center
Fri 03:20:52 PM 46.8233 -120.7819 327° Northwest 169 194 14,100  Level Seattle Center
Fri 03:21:54 PM 46.8628 -120.8189 327° Northwest 169 194 14,100  Level Seattle Center
Fri 03:22:55 PM 46.9014 -120.8564 326° Northwest 167 192 14,100  Level Seattle Center
Fri 03:23:56 PM 46.9406 -120.8942 327° Northwest 170 196 14,100  Level Seattle Center
Fri 03:24:57 PM 46.9803 -120.9294 329° Northwest 167 192 14,100  Level Seattle Center
Fri 03:25:58 PM 47.0186 -120.9669 326° Northwest 165 190 14,100  Level Seattle Center
Fri 03:26:59 PM 47.0619 -121.0083 327° Northwest 173 199 14,100 -49 Level Seattle Center
Fri 03:28:00 PM 47.1014 -121.0475 326° Northwest 172 198 14,000  Descending Seattle Center
Fri 03:29:01 PM 47.1403 -121.0811 330° Northwest 163 188 14,100 49 Climbing Seattle Center
Fri 03:30:02 PM 47.1772 -121.1206 324° Northwest 165 190 14,100  Level Seattle Center
Fri 03:31:03 PM 47.2231 -121.1650 327° Northwest 163 188 14,100  Level Seattle Center
Fri 03:32:04 PM 47.2619 -121.2014 328° Northwest 165 190 14,100  Level Seattle Center
Fri 03:33:05 PM 47.3011 -121.2419 325° Northwest 170 196 14,100  Level Seattle Center
Fri 03:34:06 PM 47.3389 -121.2800 326° Northwest 166 191 14,100  Level Seattle Center
Fri 03:35:08 PM 47.3767 -121.3178 326° Northwest 167 192 14,100  Level Seattle Center
Fri 03:35:37 PM 47.3947 -121.3353 327° Northwest 166 191 14,100  Level Seattle Center
Fri 03:36:09 PM 47.4144 -121.3558 325° Northwest 166 191 14,100  Level Seattle Center
Fri 03:36:32 PM 47.4300 -121.3675 333° Northwest 162 186 14,100  Level Seattle Center
Fri 03:37:10 PM 47.4550 -121.3933 325° Northwest 161 185 14,100  Level Seattle Center
Fri 03:38:11 PM 47.4919 -121.4297 326° Northwest 160 184 14,100  Level Seattle Center
Fri 03:39:12 PM 47.5286 -121.4683 325° Northwest 162 186 14,100  Level Seattle Center
Fri 03:40:13 PM 47.5656 -121.5047 326° Northwest 162 186 14,100  Level Seattle Center
Fri 03:41:14 PM 47.6047 -121.5444 326° Northwest 160 184 14,100  Level Seattle Center
Fri 03:42:15 PM 47.6431 -121.5814 327° Northwest 165 190 14,100 -246 Level Seattle Center
Fri 03:43:16 PM 47.6806 -121.6233 323° Northwest 170 196 13,600 -590 Descending Seattle Center
Fri 03:44:17 PM 47.7239 -121.6661 326° Northwest 186 214 12,900 -689 Descending Seattle Center
Fri 03:45:18 PM 47.7678 -121.7122 325° Northwest 193 222 12,200 -689 Descending Seattle Center
Fri 03:46:19 PM 47.8172 -121.7586 328° Northwest 196 226 11,500 -639 Descending Seattle Center
Fri 03:47:20 PM 47.8589 -121.7983 327° Northwest 195 224 10,900 -590 Descending Seattle Center
Fri 03:48:21 PM 47.9022 -121.8442 325° Northwest 193 222 10,300 -545 Descending Seattle Center
Fri 03:48:59 PM 47.9347 -121.8794 324° Northwest 191 220 10,000 -321 Descending Seattle Center
Fri 03:49:17 PM 47.9461 -121.8892 330° Northwest 188 216 10,000  Level Seattle Center
Fri 03:49:22 PM 47.9461 -121.8872 90° East 190 219 10,000  Level Seattle Center
Fri 03:50:17 PM 47.9886 -121.9308 326° Northwest 173 199 10,000  Level Seattle Center
Fri 03:50:23 PM 47.9864 -121.9267 129° Southeast 178 205 10,000  Level Seattle Center
Fri 03:51:12 PM 48.0256 -121.9692 324° Northwest 171 197 10,000 -197 Level Seattle Center
Fri 03:51:24 PM 48.0314 -121.9789 312° West 172 198 9,800 -900 Descending Seattle Center
Fri 03:52:12 PM 48.0528 -122.0300 302° West 186 214 9,100 -885 Descending Seattle Center
Fri 03:52:25 PM 48.0600 -122.0414 313° West 182 209 8,900 -1,377 Descending Seattle Center
Fri 03:53:13 PM 48.0878 -122.0861 313° West 190 219 7,700 -1,475 Descending Seattle Center
Fri 03:53:26 PM 48.0964 -122.0967 321° Northwest 187 215 7,400 -1,279 Descending Seattle Center
Fri 03:54:14 PM 48.1228 -122.1425 311° West 189 217 6,400 -1,180 Descending Seattle Center
Fri 03:54:27 PM 48.1294 -122.1564 306° West 187 215 6,200 -900 Descending Seattle Center
Fri 03:55:14 PM 48.1525 -122.2053 305° West 174 200 5,500 -689 Descending Seattle Center
Fri 03:55:28 PM 48.1597 -122.2100 336° Northwest 174 200 5,500 -689 Level Seattle Center
Fri 03:56:15 PM 48.1978 -122.1989 11° North 163 188 4,800 -787 Descending Seattle Center
Fri 03:56:29 PM 48.2050 -122.1958 16° North 164 189 4,700 -400 Descending Seattle Center
Fri 03:57:15 PM 48.2378 -122.1889 North 146 168 4,400 -295 Descending Seattle Center
Fri 03:57:30 PM 48.2458 -122.1861 13° North 149 171 4,400 -655 Level Seattle Center
Fri 03:58:10 PM 48.2753 -122.1869 359° North 155 178 3,800 -787 Descending Seattle Center
Fri 03:58:31 PM 48.2864 -122.1969 329° Northwest 158 182 3,600 -985 Descending Seattle Center
Fri 03:59:17 PM 48.3167 -122.2431 315° West 178 205 2,700 -984 Descending Seattle Center
Fri 03:59:32 PM 48.3203 -122.2469 324° Northwest 169 194 2,600 -500 Descending Seattle Center
Fri 04:00:17 PM 48.3472 -122.2922 312° West 167 192 2,200 -492 Descending Seattle Center
Fri 04:00:33 PM 48.3531 -122.2950 342° North 168 193 2,100 -375 Descending Seattle Center
Fri 04:02:00 PM 48.4039 -122.3539 326° Northwest  Level FlightAware Approximate
Fri 04:09:00 PM 48.4667 -122.4167 North  Level FlightAware Approximate
Fri 04:10:00 PM 48.4705 -122.4217 North  Level Estimated

Login

Don't have an account? Register now (free) for customized features, flight alerts, and more!